createdAt,value
2023-01-09T00:00:39.007Z,9.14
2023-01-09T00:03:07.361Z,9.19
2023-01-09T00:05:33.728Z,9.07
2023-01-09T00:08:01.082Z,9.16
2023-01-09T00:10:28.817Z,9.18
2023-01-09T00:12:55.421Z,9.14
2023-01-09T00:15:21.741Z,9.22
2023-01-09T00:17:48.171Z,9.24
2023-01-09T00:20:14.525Z,9.21
2023-01-09T00:22:40.851Z,9.02
2023-01-09T00:25:07.368Z,9.00
2023-01-09T00:27:34.070Z,8.98
2023-01-09T00:30:00.619Z,9.02
2023-01-09T00:32:27.218Z,9.05
2023-01-09T00:34:55.790Z,9.10
2023-01-09T00:37:22.382Z,9.06
2023-01-09T00:39:49.713Z,9.08
2023-01-09T00:42:16.101Z,9.18
2023-01-09T00:44:42.457Z,9.17
2023-01-09T00:47:10.303Z,8.99
2023-01-09T00:49:36.639Z,9.04
2023-01-09T00:52:02.975Z,8.91
2023-01-09T00:54:29.383Z,8.87
2023-01-09T00:56:55.780Z,8.74
2023-01-09T00:59:22.158Z,8.69
2023-01-09T01:01:51.122Z,8.70
2023-01-09T01:04:17.491Z,8.60
2023-01-09T01:06:44.877Z,8.52
2023-01-09T01:09:11.431Z,8.61
2023-01-09T01:11:38.203Z,8.47
2023-01-09T01:14:04.532Z,8.27
2023-01-09T01:16:31.598Z,8.00
2023-01-09T01:18:57.992Z,7.15
2023-01-09T01:21:24.365Z,5.85
2023-01-09T01:23:52.709Z,5.11
2023-01-09T01:26:19.194Z,4.97
2023-01-09T01:28:47.773Z,4.92
2023-01-09T01:31:14.140Z,4.94
2023-01-09T01:33:40.478Z,5.00
2023-01-09T01:36:06.864Z,5.04
2023-01-09T01:38:33.510Z,5.12
2023-01-09T01:40:59.855Z,5.35
2023-01-09T01:43:28.297Z,5.25
2023-01-09T01:45:54.803Z,5.27
2023-01-09T01:48:21.395Z,5.19
2023-01-09T01:50:48.089Z,5.09
2023-01-09T01:53:14.424Z,5.12
2023-01-09T01:55:40.828Z,5.09
2023-01-09T01:58:07.162Z,5.19
2023-01-09T02:00:33.487Z,5.06
2023-01-09T02:02:59.887Z,5.16
2023-01-09T02:05:26.235Z,5.15
2023-01-09T02:07:52.640Z,5.25
2023-01-09T02:10:18.969Z,5.29
2023-01-09T02:12:45.644Z,5.32
2023-01-09T02:15:11.974Z,5.22
2023-01-09T02:17:38.530Z,4.96
2023-01-09T02:20:05.678Z,4.84
2023-01-09T02:22:32.351Z,4.62
2023-01-09T02:24:58.694Z,4.46
2023-01-09T02:27:25.162Z,4.58
2023-01-09T02:29:51.527Z,4.64
2023-01-09T02:32:18.349Z,4.56
2023-01-09T02:34:44.690Z,4.57
2023-01-09T02:37:11.056Z,4.58
2023-01-09T02:39:37.428Z,4.57
2023-01-09T02:42:03.892Z,4.66
2023-01-09T02:44:30.223Z,4.66
2023-01-09T02:46:56.593Z,4.73
2023-01-09T02:49:22.981Z,4.66
2023-01-09T02:51:49.407Z,4.74
2023-01-09T02:54:18.025Z,4.73
2023-01-09T02:56:44.358Z,4.73
2023-01-09T02:59:10.681Z,4.90
2023-01-09T03:01:37.112Z,5.01
2023-01-09T03:04:03.509Z,4.98
2023-01-09T03:06:31.918Z,5.08
2023-01-09T03:08:58.265Z,5.08
2023-01-09T03:11:24.642Z,5.17
2023-01-09T03:13:51.007Z,5.24
2023-01-09T03:16:17.434Z,5.26
2023-01-09T03:18:43.849Z,5.38
2023-01-09T03:21:10.322Z,5.40
2023-01-09T03:23:36.691Z,5.48
2023-01-09T03:26:03.157Z,5.56
2023-01-09T03:28:29.483Z,5.61
2023-01-09T03:30:55.808Z,5.66
2023-01-09T03:33:22.348Z,5.72
2023-01-09T03:35:48.694Z,5.72
2023-01-09T03:38:15.035Z,5.65
2023-01-09T03:40:41.578Z,5.51
2023-01-09T03:43:07.921Z,5.36
2023-01-09T03:45:34.306Z,4.79
2023-01-09T03:48:02.693Z,4.34
2023-01-09T03:50:29.057Z,4.30
2023-01-09T03:52:55.448Z,4.39
2023-01-09T03:55:23.909Z,4.39
2023-01-09T03:57:50.458Z,4.49
2023-01-09T04:00:16.816Z,4.48
2023-01-09T04:02:43.174Z,4.35
2023-01-09T04:05:09.566Z,4.49
2023-01-09T04:07:35.953Z,4.56
2023-01-09T04:10:02.298Z,4.57
2023-01-09T04:12:30.977Z,4.67
2023-01-09T04:14:57.322Z,4.71
2023-01-09T04:17:23.759Z,4.82
2023-01-09T04:19:50.460Z,4.86
2023-01-09T04:22:16.787Z,4.91
2023-01-09T04:24:43.228Z,4.74
2023-01-09T04:27:09.607Z,4.80
2023-01-09T04:29:35.987Z,4.83
2023-01-09T04:32:02.430Z,4.82
2023-01-09T04:34:28.802Z,4.85
2023-01-09T04:36:55.232Z,4.85
2023-01-09T04:39:21.861Z,4.88
2023-01-09T04:41:48.239Z,4.83
2023-01-09T04:44:14.702Z,4.78
2023-01-09T04:46:41.033Z,4.82
2023-01-09T04:49:07.388Z,4.86
2023-01-09T04:51:33.860Z,4.79
2023-01-09T04:54:01.193Z,4.72
2023-01-09T04:56:27.564Z,4.82
2023-01-09T04:58:54.995Z,4.81
2023-01-09T05:01:21.540Z,4.69
2023-01-09T05:03:50.216Z,4.82
2023-01-09T05:06:19.022Z,4.89
2023-01-09T05:08:45.379Z,4.90
2023-01-09T05:11:11.752Z,4.96
2023-01-09T05:13:45.516Z,4.89
2023-01-09T05:16:11.972Z,4.95
2023-01-09T05:18:38.375Z,4.87
2023-01-09T05:21:04.727Z,4.93
2023-01-09T05:23:31.319Z,4.90
2023-01-09T05:25:57.690Z,4.92
2023-01-09T05:28:24.325Z,4.91
2023-01-09T05:30:50.883Z,4.99
2023-01-09T05:33:17.434Z,5.01
2023-01-09T05:35:44.127Z,4.95
2023-01-09T05:38:11.185Z,5.00
2023-01-09T05:40:40.638Z,4.99
2023-01-09T05:43:07.213Z,4.94
2023-01-09T05:45:33.616Z,4.99
2023-01-09T05:48:00.214Z,5.00
2023-01-09T05:50:27.188Z,5.05
2023-01-09T05:52:53.969Z,5.08
2023-01-09T05:55:20.359Z,5.16
2023-01-09T05:57:46.775Z,5.07
2023-01-09T06:00:13.319Z,5.04
2023-01-09T06:02:39.912Z,5.00
2023-01-09T06:05:06.418Z,4.98
2023-01-09T06:07:32.779Z,5.12
2023-01-09T06:09:59.204Z,5.11
2023-01-09T06:12:25.701Z,5.10
2023-01-09T06:14:53.099Z,5.07
2023-01-09T06:17:19.579Z,5.11
2023-01-09T06:19:46.037Z,5.13
2023-01-09T06:22:12.412Z,5.06
2023-01-09T06:24:38.752Z,5.02
2023-01-09T06:27:05.119Z,5.06
2023-01-09T06:29:31.517Z,5.22
2023-01-09T06:32:01.211Z,5.17
2023-01-09T06:34:27.575Z,5.34
2023-01-09T06:36:54.331Z,5.47
2023-01-09T06:39:20.675Z,5.54
2023-01-09T06:41:48.472Z,5.59
2023-01-09T06:44:16.225Z,5.56
2023-01-09T06:46:42.612Z,5.60
2023-01-09T06:49:11.114Z,5.66
2023-01-09T06:51:37.664Z,5.60
2023-01-09T06:54:04.260Z,5.56
2023-01-09T06:56:30.732Z,5.66
2023-01-09T06:58:57.109Z,5.54
2023-01-09T07:01:23.598Z,5.60
2023-01-09T07:03:50.129Z,5.59
2023-01-09T07:06:16.615Z,5.56
2023-01-09T07:08:43.171Z,5.57
2023-01-09T07:11:10.528Z,5.64
2023-01-09T07:13:37.107Z,5.50
2023-01-09T07:16:03.578Z,5.33
2023-01-09T07:18:30.027Z,5.28
2023-01-09T07:20:56.368Z,5.28
2023-01-09T07:23:22.746Z,5.32
2023-01-09T07:25:49.078Z,5.34
2023-01-09T07:28:15.748Z,5.33
2023-01-09T07:30:42.102Z,5.25
2023-01-09T07:33:08.438Z,5.17
2023-01-09T07:35:34.816Z,5.19
2023-01-09T07:38:01.424Z,5.34
2023-01-09T07:40:27.966Z,5.26
2023-01-09T07:42:54.590Z,5.25
2023-01-09T07:45:20.938Z,5.31
2023-01-09T07:47:47.318Z,5.35
2023-01-09T07:50:13.941Z,5.47
2023-01-09T07:52:41.311Z,5.36
2023-01-09T07:55:07.836Z,5.42
2023-01-09T07:57:34.230Z,5.55
2023-01-09T08:00:02.937Z,5.53
2023-01-09T08:02:30.286Z,5.58
2023-01-09T08:04:57.018Z,5.73
2023-01-09T08:07:23.383Z,5.81
2023-01-09T08:09:49.748Z,5.78
2023-01-09T08:12:16.128Z,5.85
2023-01-09T08:14:42.514Z,6.05
2023-01-09T08:17:09.247Z,6.13
2023-01-09T08:19:35.883Z,6.13
2023-01-09T08:22:04.658Z,6.04
2023-01-09T08:24:31.298Z,6.07
2023-01-09T08:26:57.688Z,6.07
2023-01-09T08:29:26.014Z,6.18
2023-01-09T08:31:53.256Z,6.30
2023-01-09T08:34:19.778Z,6.25
2023-01-09T08:36:48.409Z,6.38
2023-01-09T08:39:17.282Z,6.36
2023-01-09T08:41:43.724Z,6.55
2023-01-09T08:44:10.207Z,6.69
2023-01-09T08:46:36.625Z,6.60
2023-01-09T08:49:03.167Z,6.64
2023-01-09T08:51:29.622Z,6.67
2023-01-09T08:53:55.943Z,6.68
2023-01-09T08:56:22.460Z,6.81
2023-01-09T08:58:50.738Z,6.93
2023-01-09T09:01:17.197Z,7.00
2023-01-09T09:03:43.740Z,7.05
2023-01-09T09:06:10.293Z,7.00
2023-01-09T09:08:36.735Z,7.03
2023-01-09T09:11:03.212Z,7.13
2023-01-09T09:13:29.581Z,7.23
2023-01-09T09:15:56.271Z,7.22
2023-01-09T09:18:25.726Z,7.41
2023-01-09T09:20:54.722Z,7.46
2023-01-09T09:23:22.354Z,7.36
2023-01-09T09:25:48.880Z,7.51
2023-01-09T09:28:16.247Z,7.74
2023-01-09T09:30:42.590Z,7.57
2023-01-09T09:33:09.370Z,7.65
2023-01-09T09:35:36.937Z,7.80
2023-01-09T09:38:05.195Z,7.85
2023-01-09T09:40:32.014Z,7.80
2023-01-09T09:42:58.370Z,7.98
2023-01-09T09:45:24.952Z,7.98
2023-01-09T09:47:51.321Z,7.81
2023-01-09T09:50:17.698Z,7.74
2023-01-09T09:52:44.275Z,7.62
2023-01-09T09:55:10.779Z,7.67
2023-01-09T09:57:37.446Z,7.59
2023-01-09T10:00:06.151Z,7.62
2023-01-09T10:02:32.517Z,7.55
2023-01-09T10:04:59.900Z,7.31
2023-01-09T10:07:26.286Z,7.41
2023-01-09T10:09:53.867Z,7.34
2023-01-09T10:12:20.199Z,7.13
2023-01-09T10:14:46.539Z,7.11
2023-01-09T10:17:13.944Z,7.02
2023-01-09T10:19:41.279Z,7.04
2023-01-09T10:22:07.621Z,6.96
2023-01-09T10:24:34.003Z,6.82
2023-01-09T10:27:00.402Z,6.66
2023-01-09T10:29:26.753Z,6.81
2023-01-09T10:31:54.157Z,6.59
2023-01-09T10:34:20.779Z,6.61
2023-01-09T10:36:50.561Z,6.53
2023-01-09T10:39:18.107Z,6.62
2023-01-09T10:41:44.498Z,6.48
2023-01-09T10:44:11.171Z,6.40
2023-01-09T10:46:37.812Z,6.35
2023-01-09T10:49:06.906Z,6.36
2023-01-09T10:51:33.360Z,6.10
2023-01-09T10:54:02.906Z,6.18
2023-01-09T10:56:32.748Z,6.07
2023-01-09T10:58:59.404Z,5.92
2023-01-09T11:01:26.857Z,5.85
2023-01-09T11:03:53.273Z,5.69
2023-01-09T11:06:19.709Z,5.54
2023-01-09T11:08:46.112Z,5.62
2023-01-09T11:11:12.689Z,5.72
2023-01-09T11:13:41.425Z,5.87
2023-01-09T11:16:08.567Z,5.98
2023-01-09T11:18:35.110Z,6.03
2023-01-09T11:21:01.517Z,5.96
2023-01-09T11:23:27.911Z,5.90
2023-01-09T11:25:55.288Z,6.05
2023-01-09T11:28:21.683Z,6.08
2023-01-09T11:30:48.315Z,6.31
2023-01-09T11:33:14.714Z,6.74
2023-01-09T11:35:41.183Z,6.73
2023-01-09T11:38:07.599Z,6.61
2023-01-09T11:40:33.978Z,7.03
2023-01-09T11:43:02.569Z,7.16
2023-01-09T11:45:28.943Z,7.35
2023-01-09T11:47:55.327Z,7.25
2023-01-09T11:50:21.710Z,6.83
2023-01-09T11:52:48.067Z,6.34
2023-01-09T11:55:14.456Z,6.44
2023-01-09T11:57:40.840Z,6.31
2023-01-09T12:00:07.225Z,6.35
2023-01-09T12:02:33.632Z,6.13
2023-01-09T12:05:00.013Z,6.20
2023-01-09T12:07:26.386Z,6.31
2023-01-09T12:09:53.020Z,6.28
2023-01-09T12:12:19.684Z,6.38
2023-01-09T12:14:46.095Z,6.54
2023-01-09T12:17:12.473Z,6.71
2023-01-09T12:19:38.872Z,6.51
2023-01-09T12:22:05.247Z,6.34
2023-01-09T12:24:31.588Z,6.14
2023-01-09T12:26:59.191Z,6.23
2023-01-09T12:29:25.546Z,6.28
2023-01-09T12:31:51.939Z,6.25
2023-01-09T12:34:18.348Z,6.35
2023-01-09T12:36:44.808Z,6.52
2023-01-09T12:39:13.541Z,6.45
2023-01-09T12:41:44.738Z,6.52
2023-01-09T12:44:11.092Z,6.31
2023-01-09T12:46:41.823Z,6.31
2023-01-09T12:49:08.391Z,6.32
2023-01-09T12:51:34.724Z,6.30
2023-01-09T12:54:01.061Z,6.36
2023-01-09T12:56:27.433Z,6.46
2023-01-09T12:58:54.031Z,6.46
2023-01-09T13:01:20.426Z,6.48
2023-01-09T13:03:46.883Z,6.31
2023-01-09T13:06:14.850Z,6.38
2023-01-09T13:08:41.213Z,6.30
2023-01-09T13:11:19.389Z,6.23
2023-01-09T13:13:46.509Z,6.05
2023-01-09T13:16:12.962Z,6.06
2023-01-09T13:18:40.120Z,5.97
2023-01-09T13:21:06.484Z,5.76
2023-01-09T13:23:32.841Z,5.82
2023-01-09T13:26:06.538Z,5.76
2023-01-09T13:28:33.288Z,5.59
2023-01-09T13:30:59.605Z,5.50
2023-01-09T13:33:26.049Z,5.18
2023-01-09T13:35:52.705Z,4.95
2023-01-09T13:38:19.397Z,4.72
2023-01-09T13:40:47.490Z,4.59
2023-01-09T13:43:18.408Z,4.39
2023-01-09T13:45:45.151Z,4.26
2023-01-09T13:48:11.609Z,3.85
2023-01-09T13:50:37.952Z,3.78
2023-01-09T13:53:04.478Z,3.57
2023-01-09T13:55:31.084Z,3.32
2023-01-09T13:57:57.461Z,3.18
2023-01-09T14:00:26.093Z,3.19
2023-01-09T14:02:53.482Z,3.07
2023-01-09T14:05:19.848Z,3.14
2023-01-09T14:07:46.226Z,3.13
2023-01-09T14:10:15.806Z,3.13
2023-01-09T14:12:42.242Z,3.11
2023-01-09T14:15:10.941Z,3.24
2023-01-09T14:17:37.445Z,3.32
2023-01-09T14:20:04.026Z,3.42
2023-01-09T14:22:31.345Z,3.49
2023-01-09T14:25:00.545Z,3.61
2023-01-09T14:27:28.919Z,3.83
2023-01-09T14:29:56.180Z,3.79
2023-01-09T14:32:24.897Z,3.91
2023-01-09T14:34:52.537Z,3.87
2023-01-09T14:37:19.736Z,3.84
2023-01-09T14:39:46.336Z,3.95
2023-01-09T14:42:12.743Z,3.99
2023-01-09T14:44:40.533Z,3.97
2023-01-09T14:47:07.476Z,4.04
2023-01-09T14:49:33.901Z,4.03
2023-01-09T14:52:00.765Z,4.03
2023-01-09T14:54:27.238Z,4.06
2023-01-09T14:56:55.857Z,4.04
2023-01-09T14:59:23.235Z,4.02
2023-01-09T15:01:50.054Z,4.08
2023-01-09T15:04:16.465Z,4.10
2023-01-09T15:06:43.004Z,3.95
2023-01-09T15:09:09.411Z,3.99
2023-01-09T15:11:35.803Z,4.02
2023-01-09T15:14:03.783Z,4.05
2023-01-09T15:16:31.857Z,3.95
2023-01-09T15:18:58.230Z,3.99
2023-01-09T15:21:34.107Z,4.08
2023-01-09T15:24:00.737Z,4.07
2023-01-09T15:26:27.719Z,4.08
2023-01-09T15:28:56.416Z,4.20
2023-01-09T15:31:22.845Z,4.16
2023-01-09T15:33:53.860Z,4.16
2023-01-09T15:36:20.932Z,4.16
2023-01-09T15:38:48.293Z,4.04
2023-01-09T15:41:14.618Z,4.10
2023-01-09T15:43:40.966Z,4.20
2023-01-09T15:46:07.628Z,4.38
2023-01-09T15:48:33.987Z,4.33
2023-01-09T15:51:00.389Z,4.48
2023-01-09T15:53:26.734Z,4.53
2023-01-09T15:55:55.564Z,4.52
2023-01-09T15:58:22.123Z,4.54
2023-01-09T16:00:51.436Z,4.54
2023-01-09T16:03:18.041Z,4.39
2023-01-09T16:05:44.434Z,4.39
2023-01-09T16:08:11.367Z,4.30
2023-01-09T16:10:41.188Z,4.29
2023-01-09T16:13:07.553Z,4.23
2023-01-09T16:15:34.343Z,4.20
2023-01-09T16:18:03.089Z,4.35
2023-01-09T16:20:29.472Z,4.29
2023-01-09T16:22:55.862Z,4.18
2023-01-09T16:25:22.242Z,4.32
2023-01-09T16:27:48.629Z,4.29
2023-01-09T16:30:16.654Z,4.30
2023-01-09T16:32:43.379Z,4.27
2023-01-09T16:35:09.757Z,4.27
2023-01-09T16:37:36.174Z,4.39
2023-01-09T16:40:02.512Z,4.46
2023-01-09T16:42:28.862Z,4.46
2023-01-09T16:44:55.234Z,4.44
2023-01-09T16:47:21.627Z,4.40
2023-01-09T16:49:48.015Z,4.36
2023-01-09T16:52:14.390Z,4.35
2023-01-09T16:54:40.729Z,4.40
2023-01-09T16:57:07.100Z,4.40
2023-01-09T16:59:34.317Z,4.38
2023-01-09T17:02:00.836Z,4.34
2023-01-09T17:04:27.409Z,4.21
2023-01-09T17:06:53.803Z,4.30
2023-01-09T17:09:20.170Z,4.28
2023-01-09T17:11:47.236Z,4.35
2023-01-09T17:14:14.339Z,4.37
2023-01-09T17:16:41.164Z,4.46
2023-01-09T17:19:07.571Z,4.37
2023-01-09T17:21:33.928Z,4.20
2023-01-09T17:24:00.321Z,4.17
2023-01-09T17:26:26.692Z,4.29
2023-01-09T17:28:53.078Z,4.10
2023-01-09T17:31:19.772Z,4.15
2023-01-09T17:33:46.153Z,4.06
2023-01-09T17:36:12.598Z,4.04
2023-01-09T17:38:39.024Z,4.05
2023-01-09T17:41:05.465Z,3.93
2023-01-09T17:43:31.832Z,3.92
2023-01-09T17:45:58.330Z,4.04
2023-01-09T17:48:25.191Z,4.07
2023-01-09T17:50:51.704Z,4.08
2023-01-09T17:53:18.076Z,4.00
2023-01-09T17:55:44.539Z,4.04
2023-01-09T17:58:10.886Z,3.99
2023-01-09T18:00:37.326Z,4.03
2023-01-09T18:03:03.702Z,3.90
2023-01-09T18:05:30.047Z,4.01
2023-01-09T18:07:56.600Z,4.05
2023-01-09T18:10:23.045Z,3.93
2023-01-09T18:12:49.732Z,4.00
2023-01-09T18:15:16.436Z,4.01
2023-01-09T18:17:42.842Z,3.90
2023-01-09T18:20:09.476Z,3.91
2023-01-09T18:22:35.797Z,3.96
2023-01-09T18:25:02.478Z,4.03
2023-01-09T18:27:28.905Z,4.12
2023-01-09T18:29:56.317Z,4.17
2023-01-09T18:32:22.881Z,4.23
2023-01-09T18:34:49.221Z,4.26
2023-01-09T18:37:15.731Z,4.11
2023-01-09T18:39:43.143Z,4.09
2023-01-09T18:42:09.532Z,4.19
2023-01-09T18:44:35.937Z,4.21
2023-01-09T18:47:02.533Z,4.19
2023-01-09T18:49:28.911Z,4.21
2023-01-09T18:51:55.385Z,4.12
2023-01-09T18:54:21.749Z,4.17
2023-01-09T18:56:48.078Z,4.19
2023-01-09T18:59:14.418Z,4.30
2023-01-09T19:01:46.994Z,4.15
2023-01-09T19:04:13.481Z,4.13
2023-01-09T19:06:40.162Z,4.18
2023-01-09T19:09:07.527Z,4.18
2023-01-09T19:11:33.935Z,4.12
2023-01-09T19:14:00.307Z,4.11
2023-01-09T19:16:26.773Z,4.02
2023-01-09T19:18:53.195Z,4.11
2023-01-09T19:21:19.795Z,4.23
2023-01-09T19:23:47.197Z,4.31
2023-01-09T19:26:13.647Z,4.37
2023-01-09T19:28:40.228Z,4.35
2023-01-09T19:31:06.599Z,4.50
2023-01-09T19:33:35.287Z,4.56
2023-01-09T19:36:01.882Z,4.60
2023-01-09T19:38:28.269Z,4.62
2023-01-09T19:40:54.613Z,4.71
2023-01-09T19:43:21.074Z,4.68
2023-01-09T19:45:47.478Z,4.66
2023-01-09T19:48:13.854Z,4.55
2023-01-09T19:50:40.244Z,4.64
2023-01-09T19:53:06.665Z,4.58
2023-01-09T19:55:33.256Z,4.23
2023-01-09T19:57:59.595Z,4.21
2023-01-09T20:00:26.119Z,4.26
2023-01-09T20:02:53.367Z,4.08
2023-01-09T20:05:20.003Z,4.22
2023-01-09T20:07:46.353Z,4.01
2023-01-09T20:10:12.703Z,3.98
2023-01-09T20:12:39.096Z,4.03
2023-01-09T20:15:05.450Z,4.00
2023-01-09T20:17:31.823Z,3.99
2023-01-09T20:19:59.271Z,4.01
2023-01-09T20:22:28.629Z,4.14
2023-01-09T20:24:57.045Z,4.17
2023-01-09T20:27:23.383Z,4.22
2023-01-09T20:29:49.710Z,4.27
2023-01-09T20:32:16.071Z,4.21
2023-01-09T20:34:42.447Z,4.30
2023-01-09T20:37:08.898Z,4.21
2023-01-09T20:39:35.625Z,4.28
2023-01-09T20:42:01.999Z,4.33
2023-01-09T20:44:28.391Z,4.26
2023-01-09T20:46:54.753Z,4.22
2023-01-09T20:49:21.115Z,4.14
2023-01-09T20:51:49.765Z,4.18
2023-01-09T20:54:16.143Z,4.23
2023-01-09T20:56:42.519Z,4.19
2023-01-09T20:59:08.901Z,4.21
2023-01-09T21:01:35.289Z,4.24
2023-01-09T21:04:01.767Z,4.22
2023-01-09T21:06:28.627Z,4.16
2023-01-09T21:08:55.044Z,4.03
2023-01-09T21:11:21.878Z,3.93
2023-01-09T21:13:48.827Z,3.89
2023-01-09T21:16:15.309Z,3.88
2023-01-09T21:18:41.718Z,3.73
2023-01-09T21:21:08.210Z,3.69
2023-01-09T21:23:34.596Z,3.69
2023-01-09T21:26:00.985Z,3.59
2023-01-09T21:28:27.404Z,3.56
2023-01-09T21:30:56.083Z,3.65
2023-01-09T21:33:22.604Z,3.61
2023-01-09T21:35:48.980Z,3.55
2023-01-09T21:38:15.359Z,3.63
2023-01-09T21:40:41.740Z,3.56
2023-01-09T21:43:08.085Z,3.65
2023-01-09T21:45:34.601Z,3.70
2023-01-09T21:48:01.057Z,3.71
2023-01-09T21:50:27.602Z,3.78
2023-01-09T21:52:53.946Z,3.83
2023-01-09T21:55:20.391Z,3.91
2023-01-09T21:57:47.410Z,3.90
2023-01-09T22:00:15.908Z,3.93
2023-01-09T22:02:42.630Z,3.99
2023-01-09T22:05:08.967Z,3.93
2023-01-09T22:07:35.298Z,3.92
2023-01-09T22:10:01.746Z,4.00
2023-01-09T22:12:28.113Z,3.86
2023-01-09T22:14:54.451Z,3.90
2023-01-09T22:17:20.838Z,3.96
2023-01-09T22:19:47.231Z,3.89
2023-01-09T22:22:14.586Z,3.83
2023-01-09T22:24:40.958Z,3.86
2023-01-09T22:27:12.607Z,3.99
2023-01-09T22:29:39.969Z,3.96
2023-01-09T22:32:07.414Z,3.99
2023-01-09T22:34:33.930Z,4.04
2023-01-09T22:37:00.305Z,4.06
2023-01-09T22:39:26.740Z,3.89
2023-01-09T22:41:53.307Z,4.00
2023-01-09T22:44:19.937Z,4.04
2023-01-09T22:46:46.337Z,4.06
2023-01-09T22:49:14.983Z,4.08
2023-01-09T22:51:41.345Z,4.12
2023-01-09T22:54:07.916Z,4.14
2023-01-09T22:56:36.720Z,4.17
2023-01-09T22:59:03.102Z,4.06
2023-01-09T23:01:31.984Z,3.74
2023-01-09T23:03:58.331Z,3.55
2023-01-09T23:06:24.719Z,3.18
2023-01-09T23:08:51.121Z,2.99
2023-01-09T23:11:17.544Z,2.89
2023-01-09T23:13:43.908Z,2.92
2023-01-09T23:16:10.482Z,2.86
2023-01-09T23:18:39.195Z,2.91
2023-01-09T23:21:05.602Z,2.89
2023-01-09T23:23:32.163Z,3.03
2023-01-09T23:25:58.565Z,3.08
2023-01-09T23:28:24.903Z,3.25
2023-01-09T23:30:51.597Z,3.36
2023-01-09T23:33:18.016Z,3.43
2023-01-09T23:35:44.391Z,3.52
2023-01-09T23:38:10.748Z,3.63
2023-01-09T23:40:37.330Z,3.55
2023-01-09T23:43:03.706Z,3.34
2023-01-09T23:45:30.168Z,3.27
2023-01-09T23:47:56.571Z,3.35
2023-01-09T23:50:24.053Z,3.47
2023-01-09T23:52:51.479Z,3.38
2023-01-09T23:55:17.939Z,3.52
2023-01-09T23:57:44.347Z,3.49
